sensor_id;sensor_type;location;lat;lon;timestamp;temperature;humidity
35085;SHT85;21267;51.032;6.998;2023-02-05T00:02:14;6.97;87.54
35085;SHT85;21267;51.032;6.998;2023-02-05T00:04:43;6.94;88.18
35085;SHT85;21267;51.032;6.998;2023-02-05T00:07:10;6.89;88.00
35085;SHT85;21267;51.032;6.998;2023-02-05T00:09:36;6.80;88.45
35085;SHT85;21267;51.032;6.998;2023-02-05T00:12:06;6.75;88.80
35085;SHT85;21267;51.032;6.998;2023-02-05T00:14:33;6.76;89.21
35085;SHT85;21267;51.032;6.998;2023-02-05T00:16:59;6.73;89.07
35085;SHT85;21267;51.032;6.998;2023-02-05T00:19:26;6.86;89.23
35085;SHT85;21267;51.032;6.998;2023-02-05T00:21:52;6.71;89.25
35085;SHT85;21267;51.032;6.998;2023-02-05T00:24:19;6.68;89.56
35085;SHT85;21267;51.032;6.998;2023-02-05T00:26:46;6.61;89.78
35085;SHT85;21267;51.032;6.998;2023-02-05T00:29:13;6.59;90.17
35085;SHT85;21267;51.032;6.998;2023-02-05T00:31:40;6.66;90.50
35085;SHT85;21267;51.032;6.998;2023-02-05T00:34:08;6.63;90.73
35085;SHT85;21267;51.032;6.998;2023-02-05T00:36:34;6.49;91.84
35085;SHT85;21267;51.032;6.998;2023-02-05T00:39:01;6.36;92.67
35085;SHT85;21267;51.032;6.998;2023-02-05T00:41:28;6.32;92.79
35085;SHT85;21267;51.032;6.998;2023-02-05T00:43:54;6.29;93.13
35085;SHT85;21267;51.032;6.998;2023-02-05T00:46:21;6.31;93.04
35085;SHT85;21267;51.032;6.998;2023-02-05T00:48:47;6.34;92.93
35085;SHT85;21267;51.032;6.998;2023-02-05T00:51:14;6.36;92.94
35085;SHT85;21267;51.032;6.998;2023-02-05T00:53:41;6.42;92.56
35085;SHT85;21267;51.032;6.998;2023-02-05T00:56:07;6.48;92.15
35085;SHT85;21267;51.032;6.998;2023-02-05T01:01:39;6.61;91.88
35085;SHT85;21267;51.032;6.998;2023-02-05T01:04:35;6.52;91.78
35085;SHT85;21267;51.032;6.998;2023-02-05T01:07:02;6.50;91.88
35085;SHT85;21267;51.032;6.998;2023-02-05T01:09:29;6.48;92.07
35085;SHT85;21267;51.032;6.998;2023-02-05T01:11:59;6.49;91.81
35085;SHT85;21267;51.032;6.998;2023-02-05T01:14:26;6.52;92.07
35085;SHT85;21267;51.032;6.998;2023-02-05T01:16:53;6.42;91.81
35085;SHT85;21267;51.032;6.998;2023-02-05T01:19:19;6.44;92.02
35085;SHT85;21267;51.032;6.998;2023-02-05T01:21:46;6.41;92.17
35085;SHT85;21267;51.032;6.998;2023-02-05T01:24:13;6.38;92.17
35085;SHT85;21267;51.032;6.998;2023-02-05T01:26:45;6.38;92.63
35085;SHT85;21267;51.032;6.998;2023-02-05T01:29:14;6.36;92.74
35085;SHT85;21267;51.032;6.998;2023-02-05T01:31:41;6.42;92.78
35085;SHT85;21267;51.032;6.998;2023-02-05T01:34:08;6.41;92.74
35085;SHT85;21267;51.032;6.998;2023-02-05T01:36:35;6.35;92.98
35085;SHT85;21267;51.032;6.998;2023-02-05T01:39:02;6.39;93.01
35085;SHT85;21267;51.032;6.998;2023-02-05T01:41:29;6.29;93.08
35085;SHT85;21267;51.032;6.998;2023-02-05T01:46:38;6.26;93.64
35085;SHT85;21267;51.032;6.998;2023-02-05T01:49:07;6.22;93.72
35085;SHT85;21267;51.032;6.998;2023-02-05T01:51:36;6.32;93.90
35085;SHT85;21267;51.032;6.998;2023-02-05T01:54:03;6.22;94.06
35085;SHT85;21267;51.032;6.998;2023-02-05T01:56:41;6.21;94.21
35085;SHT85;21267;51.032;6.998;2023-02-05T01:59:18;6.20;94.33
35085;SHT85;21267;51.032;6.998;2023-02-05T02:01:49;6.15;94.49
35085;SHT85;21267;51.032;6.998;2023-02-05T02:04:37;6.11;94.69
35085;SHT85;21267;51.032;6.998;2023-02-05T02:07:06;6.07;94.88
35085;SHT85;21267;51.032;6.998;2023-02-05T02:09:36;6.10;95.04
35085;SHT85;21267;51.032;6.998;2023-02-05T02:12:04;5.98;95.31
35085;SHT85;21267;51.032;6.998;2023-02-05T02:14:33;5.98;95.51
35085;SHT85;21267;51.032;6.998;2023-02-05T02:17:02;5.95;95.63
35085;SHT85;21267;51.032;6.998;2023-02-05T02:19:43;5.84;95.76
35085;SHT85;21267;51.032;6.998;2023-02-05T02:30:38;5.93;95.78
35085;SHT85;21267;51.032;6.998;2023-02-05T02:33:20;5.97;95.73
35085;SHT85;21267;51.032;6.998;2023-02-05T02:41:31;6.11;95.44
35085;SHT85;21267;51.032;6.998;2023-02-05T02:44:10;6.10;95.38
35085;SHT85;21267;51.032;6.998;2023-02-05T02:46:40;6.10;95.09
35085;SHT85;21267;51.032;6.998;2023-02-05T02:49:12;6.05;95.00
35085;SHT85;21267;51.032;6.998;2023-02-05T02:51:41;6.14;95.03
35085;SHT85;21267;51.032;6.998;2023-02-05T02:54:13;6.13;94.89
35085;SHT85;21267;51.032;6.998;2023-02-05T02:56:41;6.05;95.33
35085;SHT85;21267;51.032;6.998;2023-02-05T02:59:22;6.11;95.24
35085;SHT85;21267;51.032;6.998;2023-02-05T03:01:53;6.15;95.27
35085;SHT85;21267;51.032;6.998;2023-02-05T03:04:25;6.15;95.11
35085;SHT85;21267;51.032;6.998;2023-02-05T03:06:56;6.14;95.24
35085;SHT85;21267;51.032;6.998;2023-02-05T03:12:19;6.26;95.03
35085;SHT85;21267;51.032;6.998;2023-02-05T03:14:50;6.26;95.15
35085;SHT85;21267;51.032;6.998;2023-02-05T03:17:17;6.14;95.49
35085;SHT85;21267;51.032;6.998;2023-02-05T03:19:49;6.07;95.77
35085;SHT85;21267;51.032;6.998;2023-02-05T03:22:16;6.04;95.90
35085;SHT85;21267;51.032;6.998;2023-02-05T03:24:43;6.11;95.95
35085;SHT85;21267;51.032;6.998;2023-02-05T03:27:10;6.10;95.62
35085;SHT85;21267;51.032;6.998;2023-02-05T03:29:39;6.14;95.51
35085;SHT85;21267;51.032;6.998;2023-02-05T03:40:50;6.31;95.05
35085;SHT85;21267;51.032;6.998;2023-02-05T03:46:16;6.17;95.17
35085;SHT85;21267;51.032;6.998;2023-02-05T03:48:56;6.21;95.46
35085;SHT85;21267;51.032;6.998;2023-02-05T03:55:17;6.20;95.21
35085;SHT85;21267;51.032;6.998;2023-02-05T03:57:51;6.21;95.68
35085;SHT85;21267;51.032;6.998;2023-02-05T04:00:20;6.10;95.62
35085;SHT85;21267;51.032;6.998;2023-02-05T04:02:47;6.04;95.86
35085;SHT85;21267;51.032;6.998;2023-02-05T04:05:14;6.07;96.08
35085;SHT85;21267;51.032;6.998;2023-02-05T04:07:40;6.13;96.07
35085;SHT85;21267;51.032;6.998;2023-02-05T04:10:07;6.14;95.75
35085;SHT85;21267;51.032;6.998;2023-02-05T04:12:34;6.22;95.62
35085;SHT85;21267;51.032;6.998;2023-02-05T04:15:01;6.15;95.47
35085;SHT85;21267;51.032;6.998;2023-02-05T04:17:30;6.18;95.59
35085;SHT85;21267;51.032;6.998;2023-02-05T04:19:59;6.11;95.73
35085;SHT85;21267;51.032;6.998;2023-02-05T04:22:26;6.10;95.84
35085;SHT85;21267;51.032;6.998;2023-02-05T04:24:52;6.17;95.86
35085;SHT85;21267;51.032;6.998;2023-02-05T04:27:19;6.13;95.77
35085;SHT85;21267;51.032;6.998;2023-02-05T04:29:45;6.10;95.74
35085;SHT85;21267;51.032;6.998;2023-02-05T04:32:12;6.10;95.71
35085;SHT85;21267;51.032;6.998;2023-02-05T04:34:39;6.20;95.70
35085;SHT85;21267;51.032;6.998;2023-02-05T04:37:05;6.17;95.52
35085;SHT85;21267;51.032;6.998;2023-02-05T04:39:32;6.04;95.66
35085;SHT85;21267;51.032;6.998;2023-02-05T04:42:00;6.18;95.85
35085;SHT85;21267;51.032;6.998;2023-02-05T04:44:28;6.26;95.63
35085;SHT85;21267;51.032;6.998;2023-02-05T04:46:55;6.24;95.63
35085;SHT85;21267;51.032;6.998;2023-02-05T04:49:21;6.22;95.65
35085;SHT85;21267;51.032;6.998;2023-02-05T04:51:48;6.17;95.68
35085;SHT85;21267;51.032;6.998;2023-02-05T04:54:14;6.26;95.69
35085;SHT85;21267;51.032;6.998;2023-02-05T04:56:41;6.26;95.65
35085;SHT85;21267;51.032;6.998;2023-02-05T04:59:08;6.31;95.74
35085;SHT85;21267;51.032;6.998;2023-02-05T05:01:34;6.14;95.61
35085;SHT85;21267;51.032;6.998;2023-02-05T05:04:01;6.22;95.82
35085;SHT85;21267;51.032;6.998;2023-02-05T05:06:28;6.17;95.91
35085;SHT85;21267;51.032;6.998;2023-02-05T05:08:55;6.21;96.13
35085;SHT85;21267;51.032;6.998;2023-02-05T05:11:22;6.14;96.56
35085;SHT85;21267;51.032;6.998;2023-02-05T05:13:48;6.01;97.01
35085;SHT85;21267;51.032;6.998;2023-02-05T05:16:18;6.10;96.97
35085;SHT85;21267;51.032;6.998;2023-02-05T05:18:45;6.08;96.98
35085;SHT85;21267;51.032;6.998;2023-02-05T05:21:12;6.17;96.87
35085;SHT85;21267;51.032;6.998;2023-02-05T05:23:39;6.25;96.88
35085;SHT85;21267;51.032;6.998;2023-02-05T05:26:07;6.34;96.88
35085;SHT85;21267;51.032;6.998;2023-02-05T05:28:35;6.26;96.93
35085;SHT85;21267;51.032;6.998;2023-02-05T05:31:12;6.29;96.92
35085;SHT85;21267;51.032;6.998;2023-02-05T05:33:39;6.41;96.98
35085;SHT85;21267;51.032;6.998;2023-02-05T05:36:07;6.39;97.03
35085;SHT85;21267;51.032;6.998;2023-02-05T05:38:34;6.42;97.02
35085;SHT85;21267;51.032;6.998;2023-02-05T05:41:00;6.45;97.08
35085;SHT85;21267;51.032;6.998;2023-02-05T05:43:46;6.49;97.15
35085;SHT85;21267;51.032;6.998;2023-02-05T05:46:24;6.63;97.13
35085;SHT85;21267;51.032;6.998;2023-02-05T05:48:53;6.68;96.92
35085;SHT85;21267;51.032;6.998;2023-02-05T05:51:21;6.65;96.86
35085;SHT85;21267;51.032;6.998;2023-02-05T05:53:48;6.69;96.92
35085;SHT85;21267;51.032;6.998;2023-02-05T05:56:15;6.65;96.85
35085;SHT85;21267;51.032;6.998;2023-02-05T05:58:42;6.71;96.90
35085;SHT85;21267;51.032;6.998;2023-02-05T06:01:11;6.71;96.82
35085;SHT85;21267;51.032;6.998;2023-02-05T06:03:39;6.79;96.90
35085;SHT85;21267;51.032;6.998;2023-02-05T06:06:07;6.73;96.61
35085;SHT85;21267;51.032;6.998;2023-02-05T06:08:34;6.84;96.63
35085;SHT85;21267;51.032;6.998;2023-02-05T06:11:01;6.97;96.49
35085;SHT85;21267;51.032;6.998;2023-02-05T06:13:27;6.92;96.17
35085;SHT85;21267;51.032;6.998;2023-02-05T06:15:54;7.00;96.01
35085;SHT85;21267;51.032;6.998;2023-02-05T06:18:21;7.15;95.75
35085;SHT85;21267;51.032;6.998;2023-02-05T06:20:49;7.05;95.62
35085;SHT85;21267;51.032;6.998;2023-02-05T06:23:17;7.08;95.86
35085;SHT85;21267;51.032;6.998;2023-02-05T06:25:43;7.14;95.81
35085;SHT85;21267;51.032;6.998;2023-02-05T06:28:12;7.20;95.72
35085;SHT85;21267;51.032;6.998;2023-02-05T06:30:42;7.18;96.01
35085;SHT85;21267;51.032;6.998;2023-02-05T06:33:08;7.15;96.06
35085;SHT85;21267;51.032;6.998;2023-02-05T06:35:39;7.15;96.09
35085;SHT85;21267;51.032;6.998;2023-02-05T06:38:06;7.18;96.23
35085;SHT85;21267;51.032;6.998;2023-02-05T06:40:32;7.25;96.13
35085;SHT85;21267;51.032;6.998;2023-02-05T06:42:59;7.28;96.11
35085;SHT85;21267;51.032;6.998;2023-02-05T06:45:26;7.30;96.12
35085;SHT85;21267;51.032;6.998;2023-02-05T06:47:53;7.28;95.81
35085;SHT85;21267;51.032;6.998;2023-02-05T06:50:22;7.27;95.95
35085;SHT85;21267;51.032;6.998;2023-02-05T06:52:48;7.24;95.95
35085;SHT85;21267;51.032;6.998;2023-02-05T06:55:17;7.25;95.96
35085;SHT85;21267;51.032;6.998;2023-02-05T06:57:47;7.36;95.86
35085;SHT85;21267;51.032;6.998;2023-02-05T07:00:15;7.34;95.79
35085;SHT85;21267;51.032;6.998;2023-02-05T07:02:42;7.34;95.79
35085;SHT85;21267;51.032;6.998;2023-02-05T07:05:12;7.36;95.66
35085;SHT85;21267;51.032;6.998;2023-02-05T07:07:39;7.36;95.73
35085;SHT85;21267;51.032;6.998;2023-02-05T07:10:06;7.28;95.61
35085;SHT85;21267;51.032;6.998;2023-02-05T07:12:32;7.31;95.66
35085;SHT85;21267;51.032;6.998;2023-02-05T07:14:59;7.30;95.50
35085;SHT85;21267;51.032;6.998;2023-02-05T07:17:26;7.21;95.65
35085;SHT85;21267;51.032;6.998;2023-02-05T07:19:52;7.24;95.74
35085;SHT85;21267;51.032;6.998;2023-02-05T07:22:19;7.28;95.81
35085;SHT85;21267;51.032;6.998;2023-02-05T07:24:46;7.25;95.64
35085;SHT85;21267;51.032;6.998;2023-02-05T07:27:12;7.23;95.58
35085;SHT85;21267;51.032;6.998;2023-02-05T07:33:36;7.28;95.31
35085;SHT85;21267;51.032;6.998;2023-02-05T07:36:08;7.27;95.32
35085;SHT85;21267;51.032;6.998;2023-02-05T07:38:38;7.25;95.27
35085;SHT85;21267;51.032;6.998;2023-02-05T07:41:07;7.25;95.47
35085;SHT85;21267;51.032;6.998;2023-02-05T07:43:35;7.24;95.25
35085;SHT85;21267;51.032;6.998;2023-02-05T07:46:07;7.17;95.42
35085;SHT85;21267;51.032;6.998;2023-02-05T07:48:35;7.25;95.36
35085;SHT85;21267;51.032;6.998;2023-02-05T07:51:02;7.20;95.41
35085;SHT85;21267;51.032;6.998;2023-02-05T07:53:29;7.24;95.43
35085;SHT85;21267;51.032;6.998;2023-02-05T07:56:01;7.17;95.44
35085;SHT85;21267;51.032;6.998;2023-02-05T07:58:28;7.13;95.44
35085;SHT85;21267;51.032;6.998;2023-02-05T08:00:59;7.08;95.51
35085;SHT85;21267;51.032;6.998;2023-02-05T08:03:26;7.13;95.48
35085;SHT85;21267;51.032;6.998;2023-02-05T08:05:52;7.03;95.42
35085;SHT85;21267;51.032;6.998;2023-02-05T08:08:19;7.08;95.70
35085;SHT85;21267;51.032;6.998;2023-02-05T08:10:45;7.11;95.84
35085;SHT85;21267;51.032;6.998;2023-02-05T08:13:12;7.10;95.43
35085;SHT85;21267;51.032;6.998;2023-02-05T08:15:39;7.11;95.05
35085;SHT85;21267;51.032;6.998;2023-02-05T08:18:06;7.08;95.33
35085;SHT85;21267;51.032;6.998;2023-02-05T08:20:32;7.04;95.64
35085;SHT85;21267;51.032;6.998;2023-02-05T08:22:59;7.03;95.73
35085;SHT85;21267;51.032;6.998;2023-02-05T08:25:30;6.99;95.92
35085;SHT85;21267;51.032;6.998;2023-02-05T08:27:57;7.01;96.01
35085;SHT85;21267;51.032;6.998;2023-02-05T08:30:24;6.99;95.89
35085;SHT85;21267;51.032;6.998;2023-02-05T08:32:51;6.96;95.60
35085;SHT85;21267;51.032;6.998;2023-02-05T08:35:17;7.00;95.57
35085;SHT85;21267;51.032;6.998;2023-02-05T08:37:44;6.93;95.65
35085;SHT85;21267;51.032;6.998;2023-02-05T08:40:13;7.00;95.78
35085;SHT85;21267;51.032;6.998;2023-02-05T08:42:40;6.97;95.38
35085;SHT85;21267;51.032;6.998;2023-02-05T08:45:07;7.03;95.32
35085;SHT85;21267;51.032;6.998;2023-02-05T08:47:36;7.00;95.17
35085;SHT85;21267;51.032;6.998;2023-02-05T08:50:04;7.03;95.21
35085;SHT85;21267;51.032;6.998;2023-02-05T08:52:45;6.96;95.28
35085;SHT85;21267;51.032;6.998;2023-02-05T08:55:25;6.94;95.44
35085;SHT85;21267;51.032;6.998;2023-02-05T08:58:06;6.92;95.58
35085;SHT85;21267;51.032;6.998;2023-02-05T09:00:46;6.90;95.70
35085;SHT85;21267;51.032;6.998;2023-02-05T09:03:27;6.86;95.64
35085;SHT85;21267;51.032;6.998;2023-02-05T09:06:11;6.82;95.58
35085;SHT85;21267;51.032;6.998;2023-02-05T09:08:38;6.83;95.59
35085;SHT85;21267;51.032;6.998;2023-02-05T09:11:06;6.82;95.70
35085;SHT85;21267;51.032;6.998;2023-02-05T09:13:33;6.69;95.22
35085;SHT85;21267;51.032;6.998;2023-02-05T09:16:00;6.71;93.93
35085;SHT85;21267;51.032;6.998;2023-02-05T09:18:27;6.59;93.21
35085;SHT85;21267;51.032;6.998;2023-02-05T09:20:53;6.59;92.72
35085;SHT85;21267;51.032;6.998;2023-02-05T09:23:21;6.59;92.71
35085;SHT85;21267;51.032;6.998;2023-02-05T09:25:56;6.61;92.05
35085;SHT85;21267;51.032;6.998;2023-02-05T09:28:34;6.71;91.84
35085;SHT85;21267;51.032;6.998;2023-02-05T09:31:10;6.71;92.09
35085;SHT85;21267;51.032;6.998;2023-02-05T09:33:40;6.68;91.08
35085;SHT85;21267;51.032;6.998;2023-02-05T09:36:18;6.57;91.61
35085;SHT85;21267;51.032;6.998;2023-02-05T09:38:46;6.52;91.94
35085;SHT85;21267;51.032;6.998;2023-02-05T09:43:59;6.41;92.53
35085;SHT85;21267;51.032;6.998;2023-02-05T09:46:55;6.49;92.11
35085;SHT85;21267;51.032;6.998;2023-02-05T09:49:42;6.48;92.03
35085;SHT85;21267;51.032;6.998;2023-02-05T09:52:17;6.52;92.12
35085;SHT85;21267;51.032;6.998;2023-02-05T09:54:49;6.52;91.90
35085;SHT85;21267;51.032;6.998;2023-02-05T09:57:36;6.48;91.93
35085;SHT85;21267;51.032;6.998;2023-02-05T10:00:24;6.45;91.82
35085;SHT85;21267;51.032;6.998;2023-02-05T10:03:26;6.42;92.22
35085;SHT85;21267;51.032;6.998;2023-02-05T10:16:01;6.55;91.54
35085;SHT85;21267;51.032;6.998;2023-02-05T10:27:14;6.57;91.73
35085;SHT85;21267;51.032;6.998;2023-02-05T10:29:54;6.57;92.67
35085;SHT85;21267;51.032;6.998;2023-02-05T10:38:22;6.45;93.65
35085;SHT85;21267;51.032;6.998;2023-02-05T10:43:47;6.36;93.99
35085;SHT85;21267;51.032;6.998;2023-02-05T10:46:16;6.38;94.09
35085;SHT85;21267;51.032;6.998;2023-02-05T10:48:53;6.29;94.27
35085;SHT85;21267;51.032;6.998;2023-02-05T10:51:36;6.34;94.65
35085;SHT85;21267;51.032;6.998;2023-02-05T10:54:06;6.31;94.68
35085;SHT85;21267;51.032;6.998;2023-02-05T10:56:40;6.24;94.61
35085;SHT85;21267;51.032;6.998;2023-02-05T10:59:17;6.26;94.75
35085;SHT85;21267;51.032;6.998;2023-02-05T11:01:45;6.25;94.87
35085;SHT85;21267;51.032;6.998;2023-02-05T11:04:16;6.29;95.03
35085;SHT85;21267;51.032;6.998;2023-02-05T11:06:45;6.26;95.03
35085;SHT85;21267;51.032;6.998;2023-02-05T11:11:55;6.34;95.42
35085;SHT85;21267;51.032;6.998;2023-02-05T11:17:05;6.22;95.39
35085;SHT85;21267;51.032;6.998;2023-02-05T11:19:32;6.32;95.64
35085;SHT85;21267;51.032;6.998;2023-02-05T11:22:02;6.29;95.54
35085;SHT85;21267;51.032;6.998;2023-02-05T11:24:32;6.34;95.04
35085;SHT85;21267;51.032;6.998;2023-02-05T11:27:26;6.29;95.31
35085;SHT85;21267;51.032;6.998;2023-02-05T11:29:55;6.41;95.32
35085;SHT85;21267;51.032;6.998;2023-02-05T11:35:32;6.42;94.75
35085;SHT85;21267;51.032;6.998;2023-02-05T11:38:44;6.48;95.05
35085;SHT85;21267;51.032;6.998;2023-02-05T11:41:16;6.45;94.92
35085;SHT85;21267;51.032;6.998;2023-02-05T11:43:51;6.42;94.96
35085;SHT85;21267;51.032;6.998;2023-02-05T11:46:20;6.41;95.20
35085;SHT85;21267;51.032;6.998;2023-02-05T11:49:01;6.42;95.37
35085;SHT85;21267;51.032;6.998;2023-02-05T11:54:03;6.41;95.26
35085;SHT85;21267;51.032;6.998;2023-02-05T11:56:31;6.41;95.06
35085;SHT85;21267;51.032;6.998;2023-02-05T11:59:14;6.41;95.47
35085;SHT85;21267;51.032;6.998;2023-02-05T12:01:43;6.35;95.49
35085;SHT85;21267;51.032;6.998;2023-02-05T12:06:45;6.42;95.28
35085;SHT85;21267;51.032;6.998;2023-02-05T12:09:21;6.44;94.88
35085;SHT85;21267;51.032;6.998;2023-02-05T12:14:39;6.44;94.81
35085;SHT85;21267;51.032;6.998;2023-02-05T12:19:55;6.41;95.08
35085;SHT85;21267;51.032;6.998;2023-02-05T12:22:49;6.44;95.53
35085;SHT85;21267;51.032;6.998;2023-02-05T12:25:40;6.38;95.54
35085;SHT85;21267;51.032;6.998;2023-02-05T12:28:31;6.35;95.46
35085;SHT85;21267;51.032;6.998;2023-02-05T12:31:08;6.34;96.00
35085;SHT85;21267;51.032;6.998;2023-02-05T12:44:22;6.35;96.54
35085;SHT85;21267;51.032;6.998;2023-02-05T12:46:59;6.32;96.15
35085;SHT85;21267;51.032;6.998;2023-02-05T12:52:05;6.36;96.06
35085;SHT85;21267;51.032;6.998;2023-02-05T12:57:12;6.35;95.96
35085;SHT85;21267;51.032;6.998;2023-02-05T13:00:18;6.35;95.96
35085;SHT85;21267;51.032;6.998;2023-02-05T13:05:43;6.26;95.95
35085;SHT85;21267;51.032;6.998;2023-02-05T13:10:56;6.31;95.84
35085;SHT85;21267;51.032;6.998;2023-02-05T13:13:28;6.36;95.43
35085;SHT85;21267;51.032;6.998;2023-02-05T13:16:03;6.35;95.46
35085;SHT85;21267;51.032;6.998;2023-02-05T13:18:40;6.29;95.51
35085;SHT85;21267;51.032;6.998;2023-02-05T13:21:15;6.32;95.79
35085;SHT85;21267;51.032;6.998;2023-02-05T13:27:39;6.32;95.03
35085;SHT85;21267;51.032;6.998;2023-02-05T13:30:41;6.36;95.03
35085;SHT85;21267;51.032;6.998;2023-02-05T13:33:09;6.42;94.87
35085;SHT85;21267;51.032;6.998;2023-02-05T13:36:32;6.34;95.04
35085;SHT85;21267;51.032;6.998;2023-02-05T13:52:33;6.31;94.70
35085;SHT85;21267;51.032;6.998;2023-02-05T13:55:23;6.32;94.82
35085;SHT85;21267;51.032;6.998;2023-02-05T14:00:42;6.38;94.32
35085;SHT85;21267;51.032;6.998;2023-02-05T14:03:25;6.36;94.03
35085;SHT85;21267;51.032;6.998;2023-02-05T14:05:52;6.29;93.86
35085;SHT85;21267;51.032;6.998;2023-02-05T14:08:26;6.39;93.65
35085;SHT85;21267;51.032;6.998;2023-02-05T14:10:57;6.36;93.60
35085;SHT85;21267;51.032;6.998;2023-02-05T14:13:29;6.36;93.13
35085;SHT85;21267;51.032;6.998;2023-02-05T14:24:44;6.46;92.60
35085;SHT85;21267;51.032;6.998;2023-02-05T14:26:47;6.42;92.04
35085;SHT85;21267;51.032;6.998;2023-02-05T14:29:40;6.36;91.46
35085;SHT85;21267;51.032;6.998;2023-02-05T14:35:25;6.45;91.02
35085;SHT85;21267;51.032;6.998;2023-02-05T14:37:47;6.45;91.26
35085;SHT85;21267;51.032;6.998;2023-02-05T14:40:30;6.45;91.36
35085;SHT85;21267;51.032;6.998;2023-02-05T14:43:01;6.42;91.38
35085;SHT85;21267;51.032;6.998;2023-02-05T14:45:50;6.45;90.90
35085;SHT85;21267;51.032;6.998;2023-02-05T14:48:21;6.38;90.89
35085;SHT85;21267;51.032;6.998;2023-02-05T14:51:03;6.31;91.36
35085;SHT85;21267;51.032;6.998;2023-02-05T14:53:31;6.32;91.91
35085;SHT85;21267;51.032;6.998;2023-02-05T14:55:59;6.32;92.30
35085;SHT85;21267;51.032;6.998;2023-02-05T14:58:34;6.28;92.37
35085;SHT85;21267;51.032;6.998;2023-02-05T15:04:00;6.25;91.61
35085;SHT85;21267;51.032;6.998;2023-02-05T15:06:28;6.25;91.47
35085;SHT85;21267;51.032;6.998;2023-02-05T15:09:09;6.26;91.32
35085;SHT85;21267;51.032;6.998;2023-02-05T15:14:38;6.26;91.09
35085;SHT85;21267;51.032;6.998;2023-02-05T15:19:45;6.32;91.15
35085;SHT85;21267;51.032;6.998;2023-02-05T15:22:32;6.36;91.09
35085;SHT85;21267;51.032;6.998;2023-02-05T15:25:02;6.44;90.25
35085;SHT85;21267;51.032;6.998;2023-02-05T15:27:54;6.45;90.51
35085;SHT85;21267;51.032;6.998;2023-02-05T15:30:24;6.45;89.73
35085;SHT85;21267;51.032;6.998;2023-02-05T15:33:00;6.45;89.82
35085;SHT85;21267;51.032;6.998;2023-02-05T15:35:28;6.50;89.72
35085;SHT85;21267;51.032;6.998;2023-02-05T15:40:37;6.53;89.37
35085;SHT85;21267;51.032;6.998;2023-02-05T15:43:15;6.49;89.17
35085;SHT85;21267;51.032;6.998;2023-02-05T15:45:43;6.55;89.28
35085;SHT85;21267;51.032;6.998;2023-02-05T15:50:47;6.62;88.33
35085;SHT85;21267;51.032;6.998;2023-02-05T15:55:53;6.56;88.11
35085;SHT85;21267;51.032;6.998;2023-02-05T15:58:23;6.65;87.67
35085;SHT85;21267;51.032;6.998;2023-02-05T16:00:52;6.66;87.58
35085;SHT85;21267;51.032;6.998;2023-02-05T16:03:32;6.71;87.50
35085;SHT85;21267;51.032;6.998;2023-02-05T16:05:59;6.63;87.81
35085;SHT85;21267;51.032;6.998;2023-02-05T16:08:26;6.73;87.30
35085;SHT85;21267;51.032;6.998;2023-02-05T16:10:57;6.69;87.78
35085;SHT85;21267;51.032;6.998;2023-02-05T16:13:27;6.69;87.73
35085;SHT85;21267;51.032;6.998;2023-02-05T16:18:41;6.66;87.86
35085;SHT85;21267;51.032;6.998;2023-02-05T16:21:29;6.65;88.04
35085;SHT85;21267;51.032;6.998;2023-02-05T16:23:59;6.62;87.72
35085;SHT85;21267;51.032;6.998;2023-02-05T16:26:51;6.57;87.91
35085;SHT85;21267;51.032;6.998;2023-02-05T16:29:31;6.62;87.91
35085;SHT85;21267;51.032;6.998;2023-02-05T16:32:29;6.62;87.73
35085;SHT85;21267;51.032;6.998;2023-02-05T16:34:58;6.59;87.84
35085;SHT85;21267;51.032;6.998;2023-02-05T16:37:28;6.59;87.77
35085;SHT85;21267;51.032;6.998;2023-02-05T16:39:57;6.68;87.42
35085;SHT85;21267;51.032;6.998;2023-02-05T16:47:35;6.69;87.28
35085;SHT85;21267;51.032;6.998;2023-02-05T16:50:43;6.63;87.39
35085;SHT85;21267;51.032;6.998;2023-02-05T16:53:22;6.65;87.46
35085;SHT85;21267;51.032;6.998;2023-02-05T16:56:01;6.68;87.42
35085;SHT85;21267;51.032;6.998;2023-02-05T16:58:42;6.69;87.05
35085;SHT85;21267;51.032;6.998;2023-02-05T17:01:10;6.61;87.07
35085;SHT85;21267;51.032;6.998;2023-02-05T17:03:39;6.62;86.77
35085;SHT85;21267;51.032;6.998;2023-02-05T17:06:15;6.65;86.58
35085;SHT85;21267;51.032;6.998;2023-02-05T17:08:50;6.62;86.70
35085;SHT85;21267;51.032;6.998;2023-02-05T17:11:38;6.59;87.02
35085;SHT85;21267;51.032;6.998;2023-02-05T17:14:30;6.53;87.41
35085;SHT85;21267;51.032;6.998;2023-02-05T17:17:02;6.42;87.40
35085;SHT85;21267;51.032;6.998;2023-02-05T17:19:31;6.39;87.92
35085;SHT85;21267;51.032;6.998;2023-02-05T17:24:48;6.34;88.15
35085;SHT85;21267;51.032;6.998;2023-02-05T17:27:27;6.32;88.28
35085;SHT85;21267;51.032;6.998;2023-02-05T17:29:56;6.31;88.47
35085;SHT85;21267;51.032;6.998;2023-02-05T17:32:24;6.34;88.55
35085;SHT85;21267;51.032;6.998;2023-02-05T17:34:51;6.28;88.52
35085;SHT85;21267;51.032;6.998;2023-02-05T17:37:18;6.26;88.81
35085;SHT85;21267;51.032;6.998;2023-02-05T17:39:45;6.26;88.66
35085;SHT85;21267;51.032;6.998;2023-02-05T17:42:32;6.35;88.61
35085;SHT85;21267;51.032;6.998;2023-02-05T17:44:59;6.36;88.29
35085;SHT85;21267;51.032;6.998;2023-02-05T17:47:25;6.34;88.26
35085;SHT85;21267;51.032;6.998;2023-02-05T17:49:52;6.39;87.76
35085;SHT85;21267;51.032;6.998;2023-02-05T17:52:18;6.32;87.97
35085;SHT85;21267;51.032;6.998;2023-02-05T17:54:45;6.36;87.69
35085;SHT85;21267;51.032;6.998;2023-02-05T17:57:16;6.28;87.99
35085;SHT85;21267;51.032;6.998;2023-02-05T17:59:44;6.35;87.43
35085;SHT85;21267;51.032;6.998;2023-02-05T18:02:12;6.28;87.71
35085;SHT85;21267;51.032;6.998;2023-02-05T18:04:39;6.29;87.22
35085;SHT85;21267;51.032;6.998;2023-02-05T18:07:17;6.31;86.65
35085;SHT85;21267;51.032;6.998;2023-02-05T18:09:45;6.32;86.68
35085;SHT85;21267;51.032;6.998;2023-02-05T18:12:14;6.36;86.04
35085;SHT85;21267;51.032;6.998;2023-02-05T18:14:41;6.31;85.74
35085;SHT85;21267;51.032;6.998;2023-02-05T18:17:07;6.36;85.38
35085;SHT85;21267;51.032;6.998;2023-02-05T18:19:34;6.36;85.42
35085;SHT85;21267;51.032;6.998;2023-02-05T18:22:01;6.39;85.81
35085;SHT85;21267;51.032;6.998;2023-02-05T18:24:28;6.36;85.08
35085;SHT85;21267;51.032;6.998;2023-02-05T18:26:55;6.57;84.66
35085;SHT85;21267;51.032;6.998;2023-02-05T18:29:22;6.49;85.19
35085;SHT85;21267;51.032;6.998;2023-02-05T18:31:49;6.52;84.85
35085;SHT85;21267;51.032;6.998;2023-02-05T18:34:15;6.55;84.38
35085;SHT85;21267;51.032;6.998;2023-02-05T18:36:42;6.44;83.88
35085;SHT85;21267;51.032;6.998;2023-02-05T18:39:08;6.44;83.59
35085;SHT85;21267;51.032;6.998;2023-02-05T18:41:35;6.39;83.73
35085;SHT85;21267;51.032;6.998;2023-02-05T18:44:03;6.42;83.35
35085;SHT85;21267;51.032;6.998;2023-02-05T18:46:30;6.41;83.13
35085;SHT85;21267;51.032;6.998;2023-02-05T18:48:57;6.38;83.33
35085;SHT85;21267;51.032;6.998;2023-02-05T18:51:24;6.44;82.89
35085;SHT85;21267;51.032;6.998;2023-02-05T18:53:50;6.44;83.09
35085;SHT85;21267;51.032;6.998;2023-02-05T18:58:51;6.45;83.18
35085;SHT85;21267;51.032;6.998;2023-02-05T19:12:59;6.44;83.34
35085;SHT85;21267;51.032;6.998;2023-02-05T19:15:26;6.46;82.90
35085;SHT85;21267;51.032;6.998;2023-02-05T19:17:57;6.48;82.87